Accueil
METAR-TAF:

METAR-TAF

Aéroports :

Aéroport de Kangiqsujuaq

Kangiqsujuaq, Québec, Canada

latitude: 61-35N, longitude: 071-56W, altitude: 151 m

Observation

Le bulletin a été fait il y a 59 minutes, à 12:33 UTC
Vent 10 kt de nord
Température -3°C
Humidité 80%
Pression 1017 hPa
Visibilité: 24.1 km
Ciel couvert à une hauteur de 2300 ft

METAR: CYKG 011233Z 01010KT 15SM OVC023 M03/M06 A3003 RMK SC8 SLP185

Heure: 09:32 (13:32 UTC)


TAF: absent

Observations et prévisions météorologiques de plus de 4000 aéroports (messages METAR et TAF).

Les stations disponibles sont représentées par des disques jaunes et rouges sur la carte.

Passer la souris dessus pour voir le nom de la station.

Cliquer dessus pour voir les observations et prévisions météorologiques.

Pour changer de carte: cliquez sur les boutons verts avec une croix noire pour zoomer, sur le bouton vert avec un tiret pour effectuer un zoom arrière, ou sur les flèches vertes pour les cartes adjacentes.


METAR-TAF: